createdAt,value
2019-04-04T00:02:01.718Z,43.40
2019-04-04T00:04:32.556Z,38.73
2019-04-04T00:07:05.846Z,42.13
2019-04-04T00:09:35.450Z,47.10
2019-04-04T00:12:06.128Z,42.03
2019-04-04T00:14:35.719Z,40.97
2019-04-04T00:17:04.985Z,41.57
2019-04-04T00:19:34.261Z,40.83
2019-04-04T00:22:04.948Z,43.67
2019-04-04T00:24:35.462Z,46.87
2019-04-04T00:27:04.726Z,42.60
2019-04-04T00:29:35.584Z,48.73
2019-04-04T00:32:05.216Z,52.10
2019-04-04T00:34:34.857Z,47.43
2019-04-04T00:37:05.231Z,51.47
2019-04-04T00:39:35.038Z,49.97
2019-04-04T00:42:04.292Z,46.70
2019-04-04T00:44:35.707Z,52.63
2019-04-04T00:47:05.672Z,54.07
2019-04-04T00:49:37.949Z,55.30
2019-04-04T00:52:10.084Z,58.63
2019-04-04T00:54:38.244Z,59.83
2019-04-04T00:57:09.390Z,55.30
2019-04-04T00:59:38.769Z,53.17
2019-04-04T01:02:09.885Z,55.40
2019-04-04T01:04:41.822Z,49.53
2019-04-04T01:07:13.222Z,48.93
2019-04-04T01:09:45.927Z,55.73
2019-04-04T01:12:15.955Z,52.33
2019-04-04T01:14:45.213Z,65.90
2019-04-04T01:17:15.693Z,59.27
2019-04-04T01:19:48.837Z,56.70
2019-04-04T01:22:18.591Z,55.63
2019-04-04T01:24:48.190Z,52.43
2019-04-04T01:27:17.802Z,55.57
2019-04-04T01:29:47.215Z,54.17
2019-04-04T01:32:17.097Z,53.73
2019-04-04T01:34:46.982Z,54.77
2019-04-04T01:37:16.650Z,54.07
2019-04-04T01:39:47.479Z,62.63
2019-04-04T01:42:17.504Z,63.87
2019-04-04T01:44:46.763Z,53.30
2019-04-04T01:47:16.959Z,71.20
2019-04-04T01:49:47.344Z,62.17
2019-04-04T01:52:16.978Z,61.87
2019-04-04T01:54:46.769Z,57.93
2019-04-04T01:57:16.329Z,57.10
2019-04-04T01:59:45.584Z,64.67
2019-04-04T02:02:17.660Z,64.03
2019-04-04T02:04:46.175Z,61.83
2019-04-04T02:07:16.437Z,58.87
2019-04-04T02:09:45.665Z,59.00
2019-04-04T02:12:15.265Z,60.90
2019-04-04T02:14:44.507Z,62.70
2019-04-04T02:17:13.774Z,65.17
2019-04-04T02:19:43.008Z,62.57
2019-04-04T02:22:12.303Z,56.87
2019-04-04T02:24:41.529Z,57.73
2019-04-04T02:27:10.807Z,64.83
2019-04-04T02:29:41.938Z,64.50
2019-04-04T02:32:14.516Z,65.80
2019-04-04T02:34:44.610Z,61.87
2019-04-04T02:37:13.852Z,62.83
2019-04-04T02:39:43.117Z,61.77
2019-04-04T02:42:12.368Z,59.50
2019-04-04T02:44:42.821Z,56.60
2019-04-04T02:47:12.159Z,59.33
2019-04-04T02:49:41.463Z,61.00
2019-04-04T02:52:13.287Z,61.27
2019-04-04T02:54:42.436Z,62.87
2019-04-04T02:57:11.738Z,65.90
2019-04-04T02:59:41.311Z,64.23
2019-04-04T03:02:10.921Z,60.70
2019-04-04T03:04:40.176Z,75.20
2019-04-04T03:07:09.752Z,60.83
2019-04-04T03:09:42.139Z,68.30
2019-04-04T03:12:09.964Z,61.47
2019-04-04T03:14:39.356Z,70.37
2019-04-04T03:17:09.331Z,67.47
2019-04-04T03:19:40.764Z,71.57
2019-04-04T03:22:10.260Z,60.97
2019-04-04T03:24:42.907Z,73.93
2019-04-04T03:27:11.144Z,74.53
2019-04-04T03:29:40.373Z,73.27
2019-04-04T03:32:14.415Z,63.17
2019-04-04T03:34:47.785Z,65.93
2019-04-04T03:37:12.370Z,59.47
2019-04-04T03:39:42.016Z,65.27
2019-04-04T03:42:11.322Z,65.27
2019-04-04T03:44:40.979Z,61.07
2019-04-04T03:47:11.264Z,69.23
2019-04-04T03:49:42.501Z,62.83
2019-04-04T03:52:11.788Z,62.80
2019-04-04T03:54:42.130Z,72.17
2019-04-04T03:57:12.578Z,79.57
2019-04-04T03:59:42.356Z,62.13
2019-04-04T04:02:12.165Z,67.47
2019-04-04T04:04:41.796Z,68.93
2019-04-04T04:07:13.832Z,60.63
2019-04-04T04:09:42.020Z,74.07
2019-04-04T04:12:12.670Z,69.20
2019-04-04T04:14:41.974Z,67.27
2019-04-04T04:17:12.656Z,68.33
2019-04-04T04:19:42.314Z,59.20
2019-04-04T04:22:13.046Z,66.73
2019-04-04T04:24:42.918Z,68.50
2019-04-04T04:27:15.578Z,58.50
2019-04-04T04:29:43.174Z,58.27
2019-04-04T04:32:12.412Z,59.67
2019-04-04T04:34:41.863Z,59.43
2019-04-04T04:37:11.126Z,69.90
2019-04-04T04:39:42.187Z,54.13
2019-04-04T04:42:11.811Z,57.30
2019-04-04T04:44:41.504Z,59.03
2019-04-04T04:47:11.104Z,63.70
2019-04-04T04:49:40.327Z,51.20
2019-04-04T04:52:09.955Z,50.67
2019-04-04T04:54:39.209Z,57.33
2019-04-04T04:57:08.452Z,52.67
2019-04-04T04:59:38.094Z,55.07
2019-04-04T05:02:07.524Z,53.40
2019-04-04T05:04:37.953Z,52.13
2019-04-04T05:07:08.123Z,53.63
2019-04-04T05:09:39.399Z,57.07
2019-04-04T05:12:09.314Z,51.03
2019-04-04T05:14:39.226Z,49.23
2019-04-04T05:17:10.123Z,51.13
2019-04-04T05:19:39.984Z,52.40
2019-04-04T05:22:09.774Z,59.10
2019-04-04T05:24:39.086Z,58.43
2019-04-04T05:27:08.295Z,55.60
2019-04-04T05:29:37.901Z,59.70
2019-04-04T05:32:07.134Z,52.13
2019-04-04T05:34:36.404Z,56.40
2019-04-04T05:37:07.377Z,58.65
2019-04-04T05:39:36.961Z,49.03
2019-04-04T05:42:06.608Z,50.47
2019-04-04T05:44:36.295Z,52.80
2019-04-04T05:47:05.940Z,55.70
2019-04-04T05:49:36.176Z,52.43
2019-04-04T05:52:08.824Z,52.13
2019-04-04T05:54:39.095Z,50.63
2019-04-04T05:57:08.617Z,46.37
2019-04-04T05:59:38.168Z,59.67
2019-04-04T06:02:11.009Z,46.60
2019-04-04T06:04:38.780Z,44.50
2019-04-04T06:07:08.003Z,42.93
2019-04-04T06:09:37.666Z,49.80
2019-04-04T06:12:07.278Z,44.90
2019-04-04T06:14:36.939Z,39.20
2019-04-04T06:17:07.175Z,41.87
2019-04-04T06:19:37.228Z,38.80
2019-04-04T06:22:07.582Z,43.03
2019-04-04T06:24:37.214Z,41.30
2019-04-04T06:27:07.101Z,45.00
2019-04-04T06:29:37.490Z,41.53
2019-04-04T06:32:07.038Z,43.30
2019-04-04T06:34:36.657Z,43.57
2019-04-04T06:37:06.133Z,42.70
2019-04-04T06:39:35.763Z,39.23
2019-04-04T06:42:05.375Z,40.63
2019-04-04T06:44:34.619Z,36.83
2019-04-04T06:47:03.864Z,40.33
2019-04-04T06:49:35.323Z,47.20
2019-04-04T06:52:04.418Z,41.97
2019-04-04T06:54:34.341Z,34.50
2019-04-04T06:57:04.821Z,35.93
2019-04-04T06:59:34.849Z,37.33
2019-04-04T07:02:05.315Z,37.87
2019-04-04T07:04:36.068Z,34.13
2019-04-04T07:07:06.059Z,37.27
2019-04-04T07:09:37.257Z,34.20
2019-04-04T07:12:07.495Z,39.90
2019-04-04T07:14:45.696Z,37.33
2019-04-04T07:17:08.817Z,39.60
2019-04-04T07:19:38.793Z,37.23
2019-04-04T07:22:08.051Z,40.93
2019-04-04T07:24:37.286Z,42.00
2019-04-04T07:27:06.934Z,36.07
2019-04-04T07:29:36.179Z,34.70
2019-04-04T07:32:07.192Z,35.30
2019-04-04T07:34:36.540Z,39.40
2019-04-04T07:37:05.773Z,34.03
2019-04-04T07:39:35.042Z,32.57
2019-04-04T07:42:04.597Z,33.67
2019-04-04T07:44:34.207Z,35.37
2019-04-04T07:47:03.464Z,34.83
2019-04-04T07:49:32.695Z,35.90
2019-04-04T07:52:02.375Z,37.07
2019-04-04T07:54:32.838Z,32.70
2019-04-04T07:57:02.894Z,36.50
2019-04-04T07:59:32.162Z,40.90
2019-04-04T08:02:01.780Z,32.80
2019-04-04T08:04:31.351Z,36.10
2019-04-04T08:07:00.598Z,33.42
2019-04-04T08:09:30.451Z,36.90
2019-04-04T08:12:01.164Z,35.73
2019-04-04T08:14:31.159Z,31.70
2019-04-04T08:17:00.383Z,33.73
2019-04-04T08:19:30.735Z,31.07
2019-04-04T08:22:00.296Z,32.90
2019-04-04T08:24:29.535Z,34.00
2019-04-04T08:26:58.749Z,29.13
2019-04-04T08:29:27.980Z,30.63
2019-04-04T08:31:57.237Z,28.27
2019-04-04T08:34:26.776Z,29.57
2019-04-04T08:36:56.328Z,30.53
2019-04-04T08:39:27.019Z,27.87
2019-04-04T08:41:56.626Z,27.70
2019-04-04T08:44:25.844Z,28.00
2019-04-04T08:46:55.889Z,34.50
2019-04-04T08:49:25.464Z,30.00
2019-04-04T08:51:55.250Z,27.50
2019-04-04T08:54:24.748Z,26.17
2019-04-04T08:56:54.392Z,25.33
2019-04-04T08:59:23.622Z,26.73
2019-04-04T09:01:53.190Z,29.60
2019-04-04T09:04:24.027Z,27.03
2019-04-04T09:06:53.707Z,30.73
2019-04-04T09:09:23.024Z,29.20
2019-04-04T09:11:52.341Z,29.10
2019-04-04T09:14:21.615Z,30.40
2019-04-04T09:16:51.141Z,31.20
2019-04-04T09:19:20.433Z,30.90
2019-04-04T09:21:49.678Z,32.37
2019-04-04T09:24:19.255Z,31.20
2019-04-04T09:26:49.351Z,33.13
2019-04-04T09:29:18.983Z,29.50
2019-04-04T09:31:48.638Z,29.80
2019-04-04T09:34:17.925Z,32.93
2019-04-04T09:36:47.240Z,28.10
2019-04-04T09:39:19.395Z,30.47
2019-04-04T09:41:48.931Z,31.40
2019-04-04T09:44:18.891Z,29.17
2019-04-04T09:46:48.508Z,31.93
2019-04-04T09:49:17.765Z,24.50
2019-04-04T09:51:47.027Z,24.63
2019-04-04T09:54:19.224Z,22.97
2019-04-04T09:56:47.960Z,27.17
2019-04-04T09:59:17.188Z,27.60
2019-04-04T10:01:49.070Z,45.20
2019-04-04T10:04:19.245Z,28.27
2019-04-04T10:06:48.514Z,26.37
2019-04-04T10:09:17.827Z,23.17
2019-04-04T10:11:47.123Z,41.97
2019-04-04T10:14:16.730Z,22.40
2019-04-04T10:16:46.784Z,24.33
2019-04-04T10:19:16.007Z,27.27
2019-04-04T10:21:46.689Z,27.43
2019-04-04T10:24:17.490Z,28.43
2019-04-04T10:26:46.721Z,47.77
2019-04-04T10:29:16.866Z,28.80
2019-04-04T10:31:46.099Z,46.30
2019-04-04T10:34:16.263Z,25.50
2019-04-04T10:36:46.797Z,20.20
2019-04-04T10:39:28.223Z,21.07
2019-04-04T10:41:46.995Z,45.80
2019-04-04T10:44:16.278Z,61.70
2019-04-04T10:46:46.281Z,18.20
2019-04-04T10:49:16.196Z,18.30
2019-04-04T10:51:45.453Z,19.33
2019-04-04T10:54:15.343Z,14.90
2019-04-04T10:56:45.489Z,17.60
2019-04-04T10:59:15.449Z,12.80
2019-04-04T11:01:44.663Z,19.83
2019-04-04T11:04:14.138Z,9.73
2019-04-04T11:06:43.355Z,7.67
2019-04-04T11:09:12.594Z,11.63
2019-04-04T11:11:42.272Z,9.00
2019-04-04T11:14:11.520Z,8.33
2019-04-04T11:16:41.131Z,7.57
2019-04-04T11:19:10.702Z,6.67
2019-04-04T11:21:40.296Z,10.17
2019-04-04T11:24:11.371Z,9.40
2019-04-04T11:26:40.943Z,9.23
2019-04-04T11:29:10.523Z,10.63
2019-04-04T11:31:39.769Z,9.30
2019-04-04T11:34:08.978Z,10.17
2019-04-04T11:36:38.587Z,7.90
2019-04-04T11:39:08.724Z,8.07
2019-04-04T11:41:37.992Z,10.87
2019-04-04T11:44:07.218Z,11.13
2019-04-04T11:46:36.845Z,7.03
2019-04-04T11:49:06.077Z,8.50
2019-04-04T11:51:35.696Z,12.70
2019-04-04T11:54:05.509Z,10.80
2019-04-04T11:56:35.122Z,10.90
2019-04-04T11:59:04.353Z,12.07
2019-04-04T12:01:35.602Z,6.25
2019-04-04T12:04:04.857Z,7.50
2019-04-04T12:06:34.468Z,8.60
2019-04-04T12:09:03.974Z,8.13
2019-04-04T12:11:33.209Z,7.90
2019-04-04T12:14:02.444Z,10.20
2019-04-04T12:16:32.825Z,10.65
2019-04-04T12:19:02.684Z,9.00
2019-04-04T12:21:31.906Z,5.77
2019-04-04T12:24:01.263Z,6.73
2019-04-04T12:26:31.425Z,7.60
2019-04-04T12:29:00.648Z,9.10
2019-04-04T12:31:29.893Z,7.67
2019-04-04T12:34:01.952Z,6.30
2019-04-04T12:36:30.496Z,5.97
2019-04-04T12:39:00.075Z,7.60
2019-04-04T12:41:29.784Z,8.63
2019-04-04T12:44:00.122Z,6.83
2019-04-04T12:46:30.165Z,7.20
2019-04-04T12:48:59.677Z,8.60
2019-04-04T12:51:29.046Z,7.67
2019-04-04T12:53:58.286Z,9.93
2019-04-04T12:56:27.563Z,5.40
2019-04-04T12:58:56.778Z,7.93
2019-04-04T13:01:27.123Z,7.97
2019-04-04T13:03:56.402Z,6.70
2019-04-04T13:06:25.791Z,8.48
2019-04-04T13:08:55.408Z,8.20
2019-04-04T13:11:25.019Z,6.92
2019-04-04T13:13:54.625Z,4.17
2019-04-04T13:16:24.246Z,3.83
2019-04-04T13:18:53.485Z,2.80
2019-04-04T13:21:22.727Z,4.97
2019-04-04T13:23:52.358Z,4.10
2019-04-04T13:26:23.225Z,5.10
2019-04-04T13:28:53.452Z,3.13
2019-04-04T13:31:23.329Z,6.78
2019-04-04T13:33:53.600Z,3.93
2019-04-04T13:36:22.851Z,6.57
2019-04-04T13:38:54.913Z,6.30
2019-04-04T13:41:23.120Z,5.43
2019-04-04T13:43:53.604Z,6.20
2019-04-04T13:46:25.930Z,6.63
2019-04-04T13:48:54.417Z,4.43
2019-04-04T13:51:25.549Z,6.35
2019-04-04T13:53:57.112Z,6.13
2019-04-04T13:56:29.136Z,7.50
2019-04-04T13:59:01.148Z,5.17
2019-04-04T14:01:28.379Z,8.87
2019-04-04T14:03:57.941Z,5.50
2019-04-04T14:06:27.184Z,23.20
2019-04-04T14:08:56.421Z,7.60
2019-04-04T14:11:25.667Z,40.20
2019-04-04T14:13:55.548Z,31.27
2019-04-04T14:16:24.956Z,23.47
2019-04-04T14:18:55.401Z,26.87
2019-04-04T14:21:24.654Z,15.67
2019-04-04T14:23:57.112Z,14.50
2019-04-04T14:26:26.428Z,10.63
2019-04-04T14:28:56.029Z,8.20
2019-04-04T14:31:25.264Z,11.00
2019-04-04T14:33:54.523Z,5.70
2019-04-04T14:36:25.872Z,9.90
2019-04-04T14:38:55.133Z,8.40
2019-04-04T14:41:24.781Z,8.57
2019-04-04T14:43:54.547Z,4.13
2019-04-04T14:46:23.869Z,7.03
2019-04-04T14:48:53.863Z,32.17
2019-04-04T14:51:23.103Z,5.40
2019-04-04T14:53:52.318Z,5.97
2019-04-04T14:56:21.601Z,6.63
2019-04-04T14:58:50.851Z,5.40
2019-04-04T15:01:20.503Z,5.53
2019-04-04T15:03:51.240Z,6.00
2019-04-04T15:06:20.867Z,3.87
2019-04-04T15:08:50.859Z,3.97
2019-04-04T15:11:24.322Z,4.17
2019-04-04T15:13:51.441Z,9.27
2019-04-04T15:16:21.022Z,10.55
2019-04-04T15:18:50.660Z,8.00
2019-04-04T15:21:20.281Z,2.80
2019-04-04T15:23:51.194Z,6.47
2019-04-04T15:26:20.875Z,4.17
2019-04-04T15:28:50.133Z,10.97
2019-04-04T15:31:20.638Z,5.27
2019-04-04T15:33:51.743Z,8.37
2019-04-04T15:36:21.282Z,3.47
2019-04-04T15:38:50.531Z,4.63
2019-04-04T15:41:19.795Z,10.57
2019-04-04T15:43:49.863Z,10.10
2019-04-04T15:46:19.121Z,10.57
2019-04-04T15:48:49.319Z,11.07
2019-04-04T15:51:18.835Z,9.70
2019-04-04T15:53:50.233Z,5.53
2019-04-04T15:56:21.299Z,7.00
2019-04-04T15:58:50.537Z,5.33
2019-04-04T16:01:20.335Z,5.40
2019-04-04T16:03:49.969Z,5.60
2019-04-04T16:06:19.247Z,10.30
2019-04-04T16:08:48.799Z,8.07
2019-04-04T16:11:18.422Z,9.10
2019-04-04T16:13:48.067Z,6.77
2019-04-04T16:16:17.293Z,11.80
2019-04-04T16:18:46.609Z,8.03
2019-04-04T16:21:17.307Z,12.03
2019-04-04T16:23:46.983Z,9.00
2019-04-04T16:26:16.237Z,10.20
2019-04-04T16:28:45.823Z,8.03
2019-04-04T16:31:15.348Z,9.33
2019-04-04T16:33:44.618Z,5.80
2019-04-04T16:36:13.860Z,3.93
2019-04-04T16:38:43.090Z,5.90
2019-04-04T16:41:14.541Z,6.47
2019-04-04T16:43:43.350Z,7.70
2019-04-04T16:46:12.838Z,10.18
2019-04-04T16:48:42.097Z,8.53
2019-04-04T16:51:12.083Z,8.93
2019-04-04T16:53:41.783Z,8.40
2019-04-04T16:56:11.330Z,8.27
2019-04-04T16:58:40.562Z,7.53
2019-04-04T17:01:10.226Z,12.13
2019-04-04T17:03:39.592Z,13.40
2019-04-04T17:06:08.827Z,9.00
2019-04-04T17:08:38.116Z,18.00
2019-04-04T17:11:07.702Z,12.77
2019-04-04T17:13:36.941Z,13.90
2019-04-04T17:16:06.373Z,13.23
2019-04-04T17:18:35.602Z,9.50
2019-04-04T17:21:05.146Z,8.40
2019-04-04T17:23:34.516Z,14.10
2019-04-04T17:26:04.233Z,15.20
2019-04-04T17:28:34.321Z,10.93
2019-04-04T17:31:03.632Z,14.13
2019-04-04T17:33:34.540Z,15.27
2019-04-04T17:36:03.913Z,13.03
2019-04-04T17:38:33.534Z,14.50
2019-04-04T17:41:03.200Z,12.93
2019-04-04T17:43:32.481Z,17.90
2019-04-04T17:46:02.135Z,9.33
2019-04-04T17:48:32.935Z,13.17
2019-04-04T17:51:03.151Z,11.60
2019-04-04T17:53:32.441Z,13.70
2019-04-04T17:56:01.895Z,12.00
2019-04-04T17:58:31.229Z,10.70
2019-04-04T18:01:01.631Z,10.90
2019-04-04T18:03:31.261Z,11.60
2019-04-04T18:06:00.878Z,10.30
2019-04-04T18:08:30.477Z,8.80
2019-04-04T18:10:59.759Z,11.00
2019-04-04T18:13:32.073Z,8.80
2019-04-04T18:16:01.103Z,11.50
2019-04-04T18:18:30.332Z,10.20
2019-04-04T18:21:01.055Z,12.82
2019-04-04T18:23:30.306Z,14.50
2019-04-04T18:25:59.880Z,13.80
2019-04-04T18:28:29.123Z,16.00
2019-04-04T18:30:59.327Z,12.30
2019-04-04T18:33:28.843Z,13.50
2019-04-04T18:35:58.081Z,14.20
2019-04-04T18:38:27.674Z,20.80
2019-04-04T18:40:57.422Z,15.80
2019-04-04T18:43:26.840Z,15.20
2019-04-04T18:45:56.125Z,16.93
2019-04-04T18:48:25.499Z,15.30
2019-04-04T18:50:54.828Z,17.30
2019-04-04T18:53:24.613Z,12.50
2019-04-04T18:55:53.848Z,14.77
2019-04-04T18:58:24.604Z,15.30
2019-04-04T19:00:53.885Z,15.13
2019-04-04T19:03:24.322Z,16.33
2019-04-04T19:05:53.702Z,12.73
2019-04-04T19:08:23.037Z,13.30
2019-04-04T19:10:52.647Z,16.63
2019-04-04T19:13:22.555Z,19.23
2019-04-04T19:15:52.563Z,16.93
2019-04-04T19:18:21.965Z,20.00
2019-04-04T19:20:51.336Z,21.93
2019-04-04T19:23:20.582Z,20.50
2019-04-04T19:25:50.253Z,16.93
2019-04-04T19:28:19.817Z,16.83
2019-04-04T19:30:49.142Z,16.23
2019-04-04T19:33:19.744Z,17.90
2019-04-04T19:35:49.011Z,17.03
2019-04-04T19:38:18.566Z,14.50
2019-04-04T19:40:48.185Z,17.70
2019-04-04T19:43:18.545Z,21.07
2019-04-04T19:45:48.267Z,16.90
2019-04-04T19:48:17.498Z,13.67
2019-04-04T19:50:48.357Z,17.10
2019-04-04T19:53:19.780Z,13.87
2019-04-04T19:55:49.023Z,13.30
2019-04-04T19:58:18.698Z,17.83
2019-04-04T20:00:47.972Z,13.40
2019-04-04T20:03:17.605Z,10.97
2019-04-04T20:05:47.248Z,14.40
2019-04-04T20:08:16.501Z,13.07
2019-04-04T20:10:46.262Z,13.67
2019-04-04T20:13:16.538Z,12.07
2019-04-04T20:15:45.802Z,13.90
2019-04-04T20:18:15.366Z,13.37
2019-04-04T20:20:45.630Z,13.67
2019-04-04T20:23:15.191Z,14.23
2019-04-04T20:25:44.514Z,14.10
2019-04-04T20:28:13.764Z,12.80
2019-04-04T20:30:42.998Z,10.70
2019-04-04T20:33:12.533Z,13.97
2019-04-04T20:35:41.833Z,17.60
2019-04-04T20:38:12.927Z,14.30
2019-04-04T20:40:42.143Z,12.43
2019-04-04T20:43:11.385Z,17.20
2019-04-04T20:45:40.980Z,13.28
2019-04-04T20:48:12.408Z,12.93
2019-04-04T20:50:42.003Z,13.80
2019-04-04T20:53:11.279Z,12.40
2019-04-04T20:55:41.570Z,12.50
2019-04-04T20:58:11.564Z,13.20
2019-04-04T21:00:41.628Z,11.03
2019-04-04T21:03:11.958Z,14.70
2019-04-04T21:05:41.214Z,14.40
2019-04-04T21:08:11.107Z,12.73
2019-04-04T21:10:40.724Z,14.27
2019-04-04T21:13:10.611Z,14.40
2019-04-04T21:15:39.917Z,14.10
2019-04-04T21:18:09.589Z,11.47
2019-04-04T21:20:39.168Z,12.93
2019-04-04T21:23:08.824Z,13.47
2019-04-04T21:25:38.423Z,14.87
2019-04-04T21:28:07.665Z,10.67
2019-04-04T21:30:37.312Z,11.93
2019-04-04T21:33:06.595Z,11.30
2019-04-04T21:35:35.839Z,13.03
2019-04-04T21:38:05.116Z,14.37
2019-04-04T21:40:34.380Z,8.93
2019-04-04T21:43:03.623Z,10.87
2019-04-04T21:45:33.210Z,13.40
2019-04-04T21:48:02.535Z,12.47
2019-04-04T21:50:31.763Z,9.57
2019-04-04T21:53:01.426Z,12.63
2019-04-04T21:55:32.654Z,12.53
2019-04-04T21:58:02.158Z,14.47
2019-04-04T22:00:41.426Z,11.23
2019-04-04T22:03:11.094Z,13.50
2019-04-04T22:05:40.371Z,11.80
2019-04-04T22:08:10.126Z,11.37
2019-04-04T22:10:39.393Z,14.03
2019-04-04T22:13:09.870Z,13.50
2019-04-04T22:15:39.469Z,11.20
2019-04-04T22:18:08.724Z,14.80
2019-04-04T22:20:38.546Z,12.33
2019-04-04T22:23:07.835Z,13.13
2019-04-04T22:25:37.120Z,15.03
2019-04-04T22:28:06.374Z,15.33
2019-04-04T22:30:36.631Z,15.95
2019-04-04T22:33:06.211Z,11.97
2019-04-04T22:35:35.462Z,13.13
2019-04-04T22:38:04.714Z,12.30
2019-04-04T22:40:35.051Z,15.07
2019-04-04T22:43:04.293Z,15.60
2019-04-04T22:45:34.577Z,15.23
2019-04-04T22:48:05.517Z,15.73
2019-04-04T22:50:35.137Z,18.13
2019-04-04T22:53:04.421Z,13.70
2019-04-04T22:55:34.036Z,16.40
2019-04-04T22:58:03.270Z,14.90
2019-04-04T23:00:32.590Z,16.77
2019-04-04T23:03:03.939Z,18.17
2019-04-04T23:05:33.174Z,18.67
2019-04-04T23:08:02.493Z,16.23
2019-04-04T23:10:32.092Z,19.00
2019-04-04T23:13:01.513Z,17.73
2019-04-04T23:15:30.735Z,17.63
2019-04-04T23:18:00.118Z,20.13
2019-04-04T23:20:29.364Z,20.13
2019-04-04T23:23:01.055Z,20.77
2019-04-04T23:25:30.595Z,24.92
2019-04-04T23:28:01.527Z,20.57
2019-04-04T23:30:30.760Z,24.50
2019-04-04T23:33:00.595Z,32.37
2019-04-04T23:35:30.226Z,35.30
2019-04-04T23:37:59.919Z,32.97
2019-04-04T23:40:29.566Z,34.67
2019-04-04T23:43:00.253Z,41.73
2019-04-04T23:45:30.144Z,37.13
2019-04-04T23:47:59.716Z,35.57
2019-04-04T23:50:30.538Z,38.47
2019-04-04T23:52:59.782Z,41.33
2019-04-04T23:55:29.062Z,43.37
2019-04-04T23:57:58.334Z,43.63
